Time;durP1;ratioP1;P1;durP2;ratioP2;P2;SDS_P1;SDS_P2;PMS_P1;PMS_P2;Temp;Humidity;BMP_temperature;BMP_pressure;BME280_temperature;BME280_humidity;BME280_pressure;Samples;Min_cycle;Max_cycle;Signal;HPM_P1;HPM_P2
2021/12/29 00:00:21;;;;;;;13.30;6.87;;;9.70;82.70;;;12.72;60.82;99608.19;4861068;29;20200;-64
2021/12/29 00:02:49;;;;;;;12.53;7.87;;;9.60;82.50;;;12.69;60.98;99609.44;4860559;29;20242;-66
2021/12/29 00:05:17;;;;;;;11.73;7.17;;;9.60;82.60;;;12.68;60.87;99612.28;4862229;29;20240;-65
2021/12/29 00:07:45;;;;;;;13.47;8.60;;;9.60;82.60;;;12.65;60.88;99625.91;4863850;29;20193;-64
2021/12/29 00:10:15;;;;;;;10.07;7.03;;;9.60;82.50;;;12.62;60.94;99623.72;4863676;29;20650;-64
2021/12/29 00:12:47;;;;;;;12.93;7.23;;;9.60;82.40;;;12.59;61.00;99616.22;4862968;29;20204;-64
2021/12/29 00:15:17;;;;;;;11.73;7.10;;;9.60;82.50;;;12.57;61.17;99628.84;4863299;29;20651;-64
2021/12/29 00:17:46;;;;;;;11.77;6.93;;;9.60;82.40;;;12.52;61.01;99620.75;4863676;29;20189;-64
2021/12/29 00:20:18;;;;;;;10.00;6.60;;;9.60;82.40;;;12.50;61.02;99625.44;4863489;29;20657;-64
2021/12/29 00:22:48;;;;;;;12.53;7.30;;;9.50;82.30;;;12.46;61.09;99627.69;4863088;29;20597;-64
2021/12/29 00:25:16;;;;;;;11.97;8.27;;;9.50;82.30;;;12.41;61.04;99632.00;4863208;29;20271;-64
2021/12/29 00:27:44;;;;;;;12.53;7.77;;;9.50;82.10;;;12.32;61.05;99620.88;4863232;29;20234;-64
2021/12/29 00:30:13;;;;;;;11.37;7.70;;;9.40;82.00;;;12.26;61.44;99636.75;4863360;29;20199;-64
2021/12/29 00:32:41;;;;;;;13.40;6.77;;;9.40;82.10;;;12.22;61.48;99639.00;4861704;29;20201;-64
2021/12/29 00:35:14;;;;;;;9.73;6.30;;;9.40;82.20;;;12.18;61.28;99645.72;4863523;29;20197;-64
2021/12/29 00:37:42;;;;;;;11.77;7.03;;;9.30;82.20;;;12.15;61.41;99639.03;4863035;29;20193;-64
2021/12/29 00:40:12;;;;;;;15.43;7.93;;;9.30;82.90;;;12.13;61.38;99649.00;4862903;29;20197;-64
2021/12/29 00:42:40;;;;;;;10.20;6.97;;;9.30;82.30;;;12.13;61.41;99659.56;4862802;29;20329;-64
2021/12/29 00:45:09;;;;;;;13.67;7.13;;;9.20;82.40;;;12.15;61.24;99664.59;4863428;29;20254;-64
2021/12/29 00:47:38;;;;;;;13.93;7.50;;;9.20;82.60;;;12.14;61.47;99658.56;4863401;29;20188;-64
2021/12/29 00:50:16;;;;;;;12.30;8.00;;;9.20;82.70;;;12.12;61.17;99659.78;4862693;29;20204;-64
2021/12/29 00:52:45;;;;;;;11.50;6.67;;;9.20;82.80;;;12.13;61.14;99659.56;4862747;29;20203;-63
2021/12/29 00:55:16;;;;;;;9.37;6.20;;;9.10;82.80;;;12.14;61.33;99670.91;4862928;29;20205;-63
2021/12/29 00:57:44;;;;;;;10.37;6.30;;;9.20;82.90;;;12.17;61.40;99666.00;4863052;29;20266;-64
2021/12/29 01:00:16;;;;;;;9.17;5.43;;;9.10;83.00;;;12.18;61.28;99672.94;4861667;29;20279;-64
2021/12/29 01:02:44;;;;;;;11.43;6.63;;;9.10;83.00;;;12.21;61.46;99677.78;4862477;29;20212;-64
2021/12/29 01:05:14;;;;;;;10.37;6.43;;;9.20;83.10;;;12.27;61.31;99683.22;4862728;29;20193;-64
2021/12/29 01:07:44;;;;;;;10.33;6.70;;;9.20;83.00;;;12.29;61.24;99681.19;4862819;29;20207;-65
2021/12/29 01:10:15;;;;;;;10.50;6.90;;;9.20;83.10;;;12.31;61.11;99697.63;4862517;29;20200;-64
2021/12/29 01:12:53;;;;;;;14.77;8.23;;;9.30;83.00;;;12.32;61.17;99701.88;4862836;29;20188;-64
2021/12/29 01:15:27;;;;;;;11.10;7.03;;;9.30;83.60;;;12.31;61.15;99708.19;4861742;29;20227;-61
2021/12/29 01:17:58;;;;;;;14.37;7.83;;;9.30;82.70;;;12.30;61.25;99706.53;4863471;29;20316;-63
2021/12/29 01:20:26;;;;;;;11.90;7.43;;;9.30;82.50;;;12.28;60.88;99719.13;4863509;29;20204;-64
2021/12/29 01:22:54;;;;;;;13.83;8.17;;;9.30;82.50;;;12.27;61.17;99720.97;4862563;29;20235;-64
2021/12/29 01:25:23;;;;;;;10.77;7.03;;;9.30;82.50;;;12.24;60.78;99730.09;4863143;29;20209;-64
2021/12/29 01:27:50;;;;;;;9.43;6.93;;;9.20;82.40;;;12.22;61.09;99733.97;4862726;29;20199;-64
2021/12/29 01:30:18;;;;;;;11.23;7.30;;;9.20;82.50;;;12.20;60.82;99739.47;4862772;29;20200;-64
2021/12/29 01:32:47;;;;;;;9.63;6.77;;;9.20;83.30;;;12.20;61.18;99744.75;4862198;29;20622;-64
2021/12/29 01:35:15;;;;;;;10.90;7.20;;;9.20;82.50;;;12.21;61.14;99750.84;4862028;29;20197;-64
2021/12/29 01:37:42;;;;;;;12.10;7.47;;;9.20;82.50;;;12.23;60.90;99751.44;4862319;29;20685;-64
2021/12/29 01:40:15;;;;;;;11.80;8.40;;;9.20;82.50;;;12.24;60.90;99756.50;4862033;29;20278;-64
2021/12/29 01:42:44;;;;;;;12.13;7.37;;;9.20;82.50;;;12.24;61.02;99761.75;4862025;29;20295;-64
2021/12/29 01:45:13;;;;;;;12.00;7.73;;;9.20;82.60;;;12.23;60.83;99759.34;4862161;29;20189;-64
2021/12/29 01:47:41;;;;;;;13.10;8.60;;;9.20;82.60;;;12.23;60.95;99760.16;4862065;29;20674;-64
2021/12/29 01:50:11;;;;;;;10.13;7.43;;;9.20;82.60;;;12.24;60.96;99777.59;4861877;29;20208;-64
2021/12/29 01:52:40;;;;;;;14.50;9.13;;;9.10;82.50;;;12.24;61.12;99769.69;4861670;29;20279;-64
2021/12/29 01:55:12;;;;;;;14.57;8.27;;;9.20;82.70;;;12.26;60.86;99771.31;4860554;29;20554;-64
2021/12/29 01:57:43;;;;;;;12.43;7.37;;;9.20;82.70;;;12.28;60.95;99777.19;4862251;29;20192;-64
2021/12/29 02:00:17;;;;;;;12.00;7.90;;;9.20;82.80;;;12.27;61.08;99788.75;4861991;29;20192;-64
2021/12/29 02:02:44;;;;;;;13.87;8.80;;;9.20;82.90;;;12.32;60.82;99802.13;4860312;29;20208;-64
2021/12/29 02:05:12;;;;;;;13.43;8.90;;;9.20;82.90;;;12.33;60.98;99812.50;4861578;29;20204;-64
2021/12/29 02:07:41;;;;;;;15.20;9.87;;;9.20;82.70;;;12.30;60.78;99815.53;4862028;29;20197;-64
2021/12/29 02:10:12;;;;;;;15.03;8.50;;;9.20;82.60;;;12.22;60.87;99816.56;4861724;29;20213;-64
2021/12/29 02:12:41;;;;;;;16.33;9.30;;;9.20;82.60;;;12.18;60.86;99815.38;4861283;29;20199;-64
2021/12/29 02:15:12;;;;;;;12.87;8.33;;;9.20;82.60;;;12.14;61.18;99814.19;4861612;29;20576;-63
2021/12/29 02:17:39;;;;;;;17.60;9.60;;;9.20;82.60;;;12.10;60.91;99820.88;4861810;29;20194;-64
2021/12/29 02:20:12;;;;;;;12.97;9.03;;;9.10;82.50;;;12.07;61.20;99817.84;4861685;29;20203;-64
2021/12/29 02:22:45;;;;;;;13.00;8.40;;;9.10;82.50;;;12.08;61.47;99827.34;4861647;29;20238;-64
2021/12/29 02:27:48;;;;;;;13.10;8.03;;;9.10;82.80;;;12.14;61.06;99834.47;4861905;29;20192;-64
2021/12/29 02:30:20;;;;;;;12.73;9.03;;;9.10;82.80;;;12.16;61.02;99838.53;4861764;29;20238;-64
2021/12/29 02:32:49;;;;;;;15.47;9.57;;;9.10;82.90;;;12.18;61.18;99841.75;4861705;29;20216;-64
2021/12/29 02:35:19;;;;;;;13.83;9.43;;;9.10;82.90;;;12.18;61.31;99836.47;4862305;29;20268;-63
2021/12/29 02:37:46;;;;;;;14.63;9.37;;;9.10;82.90;;;12.19;61.28;99846.00;4861529;29;20216;-64
2021/12/29 02:40:15;;;;;;;14.20;9.80;;;9.10;83.00;;;12.20;61.05;99852.91;4861319;29;20681;-64
2021/12/29 02:42:43;;;;;;;16.63;10.27;;;9.10;83.00;;;12.20;60.94;99860.81;4860819;29;20204;-64
2021/12/29 02:45:14;;;;;;;20.67;10.37;;;9.10;83.00;;;12.18;61.06;99862.84;4861053;29;20559;-64
2021/12/29 02:47:42;;;;;;;15.20;10.17;;;9.10;83.00;;;12.16;61.14;99864.91;4860781;29;20193;-64
2021/12/29 02:50:15;;;;;;;18.57;9.63;;;9.10;83.10;;;12.15;61.19;99873.81;4861549;29;20185;-64
2021/12/29 02:52:45;;;;;;;15.60;11.20;;;9.10;83.80;;;12.14;61.22;99872.22;4860975;29;20192;-64
2021/12/29 02:55:14;;;;;;;23.63;10.90;;;9.10;83.20;;;12.13;61.44;99875.84;4861358;29;20550;-64
2021/12/29 02:57:42;;;;;;;18.83;10.73;;;9.10;83.30;;;12.16;61.13;99869.34;4861246;29;20260;-63
2021/12/29 03:00:14;;;;;;;20.37;9.63;;;9.10;83.40;;;12.14;61.46;99882.75;4860976;29;20196;-64
2021/12/29 03:02:42;;;;;;;20.70;10.43;;;9.10;83.40;;;12.13;61.37;99881.13;4860669;29;20626;-64
2021/12/29 03:05:10;;;;;;;21.90;10.53;;;9.10;83.40;;;12.13;61.53;99881.13;4861068;29;20567;-64
2021/12/29 03:07:38;;;;;;;21.90;12.57;;;9.10;83.40;;;12.15;61.62;99888.81;4861121;29;20196;-64
2021/12/29 03:10:07;;;;;;;21.23;11.60;;;9.20;83.40;;;12.16;61.69;99893.91;4861513;29;20535;-64
2021/12/29 03:12:35;;;;;;;18.43;9.83;;;9.20;83.40;;;12.18;61.36;99894.50;4860427;29;20284;-64
2021/12/29 03:15:03;;;;;;;22.57;11.67;;;9.20;83.40;;;12.21;61.49;99899.38;4860578;29;20303;-64
2021/12/29 03:17:31;;;;;;;21.23;11.73;;;9.20;83.50;;;12.22;61.22;99897.53;4861443;29;20199;-64
2021/12/29 03:19:58;;;;;;;17.70;11.17;;;9.20;83.40;;;12.21;61.35;99904.66;4861437;29;20227;-64
2021/12/29 03:22:26;;;;;;;20.53;11.90;;;9.20;84.10;;;12.21;61.40;99907.31;4861049;29;20675;-64
2021/12/29 03:24:54;;;;;;;16.50;10.43;;;9.20;83.30;;;12.23;61.49;99901.81;4861736;29;20250;-64
2021/12/29 03:27:22;;;;;;;15.00;10.23;;;9.20;83.30;;;12.24;61.18;99914.78;4861201;29;20207;-64
2021/12/29 03:29:50;;;;;;;24.37;11.63;;;9.20;83.30;;;12.26;61.43;99921.69;4860673;29;20782;-64
2021/12/29 03:32:34;;;;;;;16.10;12.07;;;9.20;83.30;;;12.26;61.58;99922.50;4860690;29;20224;-64
2021/12/29 03:35:01;;;;;;;16.73;12.07;;;9.20;83.30;;;12.24;61.20;99930.63;4861362;29;20227;-63
2021/12/29 03:37:28;;;;;;;17.67;11.07;;;9.20;83.30;;;12.24;61.45;99935.88;4861260;29;20212;-62
2021/12/29 03:39:56;;;;;;;17.93;10.97;;;9.20;83.40;;;12.24;61.60;99935.09;4863815;29;20277;-64
2021/12/29 03:42:24;;;;;;;20.00;11.50;;;9.20;83.40;;;12.24;61.44;99938.53;4864061;29;20192;-65
2021/12/29 03:44:52;;;;;;;15.63;10.93;;;9.20;83.50;;;12.23;61.42;99942.19;4864213;29;20205;-64
2021/12/29 03:47:19;;;;;;;16.83;12.07;;;9.20;83.50;;;12.24;61.43;99950.94;4863150;29;20209;-64
2021/12/29 03:49:46;;;;;;;17.60;11.87;;;9.20;83.50;;;12.20;61.46;99947.88;4864157;29;20200;-64
2021/12/29 03:52:15;;;;;;;14.17;10.20;;;9.20;83.50;;;12.21;61.50;99949.50;4864263;29;20228;-64
2021/12/29 03:54:42;;;;;;;14.27;10.80;;;9.20;83.70;;;12.23;61.61;99952.75;4864086;29;20212;-64
2021/12/29 03:57:09;;;;;;;16.77;11.33;;;9.20;83.80;;;12.26;61.42;99956.00;4864426;29;20218;-64
2021/12/29 03:59:38;;;;;;;16.90;10.87;;;9.20;83.80;;;12.27;61.77;99954.97;4864015;29;20196;-64
2021/12/29 04:02:05;;;;;;;14.93;11.17;;;9.20;84.00;;;12.27;61.35;99960.25;4864176;29;20201;-64
2021/12/29 04:04:33;;;;;;;11.67;9.63;;;9.20;84.00;;;12.29;61.24;99976.72;4863401;29;20274;-63
2021/12/29 04:07:00;;;;;;;14.60;10.87;;;9.20;84.10;;;12.29;61.58;99979.34;4864019;29;20203;-64
2021/12/29 04:09:28;;;;;;;14.97;11.07;;;9.20;84.20;;;12.29;61.42;99971.44;4863961;29;20275;-64
2021/12/29 04:11:55;;;;;;;15.63;10.63;;;9.20;84.20;;;12.31;61.77;99972.03;4863782;29;20279;-64
2021/12/29 04:14:26;;;;;;;14.17;10.37;;;9.20;84.40;;;12.32;61.43;99968.34;4863051;29;20579;-64
2021/12/29 04:17:07;;;;;;;13.97;10.63;;;9.20;84.40;;;12.32;61.49;99978.91;4863595;29;20568;-64
2021/12/29 04:22:22;;;;;;;13.27;10.03;;;9.20;84.30;;;12.29;61.58;99982.78;4863057;29;20200;-65
2021/12/29 04:24:49;;;;;;;10.60;9.50;;;9.20;84.40;;;12.30;61.72;99992.31;4863671;29;20325;-64
2021/12/29 04:27:17;;;;;;;14.90;10.23;;;9.20;84.50;;;12.33;61.73;99991.09;4863221;29;20207;-64
2021/12/29 04:29:44;;;;;;;14.30;10.03;;;9.20;84.50;;;12.34;61.54;99995.38;4862437;29;20589;-64
2021/12/29 04:32:13;;;;;;;11.17;9.37;;;9.20;84.50;;;12.35;61.50;99996.97;4863757;29;20271;-64
2021/12/29 04:34:40;;;;;;;12.33;9.83;;;9.20;84.50;;;12.36;61.54;99993.34;4863670;29;20290;-64
2021/12/29 04:37:07;;;;;;;16.50;10.97;;;9.20;84.50;;;12.37;61.57;99994.94;4863211;29;20201;-64
2021/12/29 04:39:35;;;;;;;15.43;10.37;;;9.30;84.60;;;12.37;61.90;100005.50;4863240;29;20714;-64
2021/12/29 04:42:03;;;;;;;13.27;10.50;;;9.30;84.60;;;12.38;61.65;100020.34;4863247;29;20193;-64
2021/12/29 04:44:30;;;;;;;15.57;11.50;;;9.30;84.60;;;12.38;61.76;100030.88;4863056;29;20594;-62
2021/12/29 04:46:58;;;;;;;19.23;11.27;;;9.20;84.40;;;12.38;61.77;100036.16;4863417;29;20688;-64
2021/12/29 04:49:39;;;;;;;14.03;11.40;;;9.30;84.60;;;12.38;61.84;100033.53;4863046;29;20185;-63
2021/12/29 04:52:10;;;;;;;21.27;12.20;;;9.20;84.40;;;12.38;61.89;100042.25;4862999;29;20218;-64
2021/12/29 04:54:38;;;;;;;15.13;11.10;;;9.30;84.50;;;12.40;61.60;100042.03;4862410;29;20217;-64
2021/12/29 04:57:06;;;;;;;15.23;11.73;;;9.30;84.50;;;12.41;61.60;100041.84;4862955;29;20201;-64
2021/12/29 04:59:34;;;;;;;16.70;11.73;;;9.30;84.60;;;12.44;61.72;100040.63;4863012;29;20197;-64
2021/12/29 05:02:01;;;;;;;16.63;11.83;;;9.30;85.30;;;12.48;61.83;100047.13;4863073;29;20280;-64
2021/12/29 05:04:33;;;;;;;22.60;13.73;;;9.30;84.60;;;12.51;61.61;100059.91;4862372;29;20228;-62
2021/12/29 05:09:48;;;;;;;19.40;14.37;;;9.30;84.60;;;12.51;61.60;100058.09;4862674;29;20199;-64
2021/12/29 05:12:15;;;;;;;19.50;12.73;;;9.30;84.50;;;12.50;61.48;100055.66;4862136;29;20212;-63
2021/12/29 05:14:42;;;;;;;16.17;12.23;;;9.30;84.50;;;12.49;61.88;100056.66;4861397;29;20295;-64
2021/12/29 05:17:10;;;;;;;16.03;11.60;;;9.30;84.50;;;12.48;61.75;100057.69;4863206;29;20200;-64
2021/12/29 05:19:38;;;;;;;15.47;11.97;;;9.30;84.50;;;12.47;61.69;100056.88;4862228;29;20196;-62
2021/12/29 05:22:06;;;;;;;18.83;11.87;;;9.30;84.50;;;12.48;61.73;100068.25;4862589;29;20281;-64
2021/12/29 05:24:33;;;;;;;16.73;12.57;;;9.30;84.50;;;12.47;61.80;100064.78;4861991;29;20248;-64
2021/12/29 05:27:02;;;;;;;20.70;13.83;;;9.30;84.40;;;12.48;61.57;100073.53;4862475;29;20283;-63
2021/12/29 05:29:29;;;;;;;17.90;13.30;;;9.30;84.40;;;12.49;61.85;100070.69;4861607;29;20209;-62
2021/12/29 05:31:56;;;;;;;16.80;12.13;;;9.30;84.50;;;12.49;61.88;100083.88;4862264;29;20200;-63
2021/12/29 05:34:24;;;;;;;17.80;13.00;;;9.30;84.50;;;12.50;61.89;100087.34;4861896;29;20244;-64
2021/12/29 05:36:52;;;;;;;20.20;14.67;;;9.30;84.60;;;12.51;61.87;100086.31;4862263;29;20199;-63
2021/12/29 05:39:20;;;;;;;15.67;12.27;;;9.30;84.60;;;12.54;61.60;100093.81;4862474;29;20208;-63
2021/12/29 05:41:48;;;;;;;18.90;13.53;;;9.40;84.80;;;12.54;61.71;100093.81;4862042;29;20200;-63
2021/12/29 05:44:15;;;;;;;20.50;13.13;;;9.30;84.70;;;12.51;61.53;100099.50;4861267;29;20574;-61
2021/12/29 05:46:43;;;;;;;20.13;12.73;;;9.40;84.60;;;12.50;61.67;100097.88;4861916;29;20273;-64
2021/12/29 05:49:11;;;;;;;15.77;10.50;;;9.40;84.50;;;12.48;61.63;100092.00;4862074;29;20196;-63
2021/12/29 05:51:38;;;;;;;21.07;13.63;;;9.40;84.40;;;12.50;61.96;100105.81;4860602;29;20228;-64
2021/12/29 05:54:07;;;;;;;14.87;11.03;;;9.40;84.40;;;12.51;61.92;100104.78;4861744;29;20597;-63
2021/12/29 05:56:34;;;;;;;17.63;12.60;;;9.40;84.40;;;12.53;61.81;100111.47;4861951;29;20205;-62
2021/12/29 05:59:02;;;;;;;17.57;11.80;;;9.40;84.40;;;12.52;61.76;100106.41;4861732;29;20231;-64
2021/12/29 06:01:31;;;;;;;15.47;12.00;;;9.40;84.40;;;12.50;62.08;100108.44;4860711;29;20725;-64
2021/12/29 06:03:59;;;;;;;20.97;13.27;;;9.40;84.30;;;12.48;61.91;100113.13;4861298;29;20244;-64
2021/12/29 06:06:26;;;;;;;15.87;11.47;;;9.40;84.30;;;12.46;61.92;100117.75;4861519;29;20573;-63
2021/12/29 06:08:53;;;;;;;19.77;12.10;;;9.40;84.30;;;12.45;61.99;100126.72;4861470;29;20200;-62
2021/12/29 06:11:22;;;;;;;15.17;10.30;;;9.40;84.40;;;12.42;61.89;100129.75;4861373;29;20199;-64
2021/12/29 06:13:49;;;;;;;16.07;12.03;;;9.40;84.40;;;12.41;62.08;100134.22;4861264;29;20212;-63
2021/12/29 06:16:16;;;;;;;14.43;11.43;;;9.40;84.50;;;12.40;61.83;100143.16;4861526;29;20209;-64
2021/12/29 06:18:44;;;;;;;16.00;11.47;;;9.40;84.50;;;12.35;62.03;100142.94;4861055;29;20609;-64
2021/12/29 06:21:16;;;;;;;14.23;11.43;;;9.40;84.40;;;12.32;62.07;100153.06;4861205;29;20614;-64
2021/12/29 06:23:44;;;;;;;13.07;10.93;;;9.30;84.30;;;12.27;62.14;100156.31;4859793;29;20270;-64
2021/12/29 06:26:12;;;;;;;16.03;12.33;;;9.30;84.30;;;12.26;62.30;100164.44;4861424;29;20203;-64
2021/12/29 06:28:43;;;;;;;15.37;11.10;;;9.30;84.40;;;12.24;62.47;100157.50;4861380;29;20192;-65
2021/12/29 06:31:11;;;;;;;16.40;12.70;;;9.30;84.50;;;12.24;62.36;100168.06;4861592;29;20560;-63
2021/12/29 06:33:38;;;;;;;15.90;11.90;;;9.30;84.60;;;12.22;62.29;100174.56;4861287;29;20223;-63
2021/12/29 06:36:06;;;;;;;16.77;11.17;;;9.30;84.60;;;12.21;62.48;100192.22;4861802;29;20293;-64
2021/12/29 06:38:34;;;;;;;17.23;11.57;;;9.30;84.70;;;12.19;62.45;100198.72;4862444;29;20196;-64
2021/12/29 06:41:02;;;;;;;15.00;11.53;;;9.20;84.60;;;12.18;62.48;100197.09;4862522;29;20666;-64
2021/12/29 06:43:29;;;;;;;13.50;10.63;;;9.20;84.70;;;12.16;62.71;100201.75;4862140;29;20690;-62
2021/12/29 06:45:58;;;;;;;16.77;11.20;;;9.20;84.80;;;12.14;62.50;100204.59;4862599;29;20681;-64
2021/12/29 06:48:26;;;;;;;15.47;10.60;;;9.20;84.90;;;12.14;62.63;100209.88;4861788;29;20248;-63
2021/12/29 06:50:53;;;;;;;13.17;10.90;;;9.20;85.00;;;12.16;62.56;100213.13;4860708;29;20658;-64
2021/12/29 06:53:21;;;;;;;13.30;9.93;;;9.20;85.00;;;12.16;62.52;100223.69;4860582;29;20223;-65
2021/12/29 06:55:48;;;;;;;13.53;11.27;;;9.20;85.00;;;12.17;62.53;100225.28;4861004;29;20188;-64
2021/12/29 06:58:16;;;;;;;11.43;9.77;;;9.20;85.10;;;12.18;62.85;100226.91;4860873;29;20204;-65
2021/12/29 07:00:43;;;;;;;12.37;9.47;;;9.20;85.10;;;12.22;62.62;100228.16;4861346;29;20220;-64
2021/12/29 07:03:12;;;;;;;12.30;9.77;;;9.20;85.10;;;12.24;62.48;100231.41;4860722;29;20240;-64
2021/12/29 07:05:40;;;;;;;13.43;10.10;;;9.20;85.10;;;12.28;62.69;100241.56;4860398;29;20678;-64
2021/12/29 07:08:08;;;;;;;13.47;9.73;;;9.20;85.10;;;12.29;62.53;100248.47;4861058;29;20492;-64
2021/12/29 07:10:35;;;;;;;12.10;9.63;;;9.20;85.10;;;12.30;62.21;100244.81;4861336;29;20224;-64
2021/12/29 07:13:02;;;;;;;12.13;9.43;;;9.20;85.10;;;12.32;62.46;100248.06;4862007;29;20622;-63
2021/12/29 07:15:30;;;;;;;10.83;9.50;;;9.20;85.20;;;12.34;62.63;100251.34;4863212;29;20215;-63
2021/12/29 07:17:57;;;;;;;10.00;8.57;;;9.20;85.10;;;12.36;62.30;100254.59;4864665;29;20204;-63
2021/12/29 07:20:26;;;;;;;10.60;8.40;;;9.30;85.30;;;12.36;62.14;100260.66;4864454;29;20685;-64
2021/12/29 07:22:53;;;;;;;11.80;9.20;;;9.30;85.20;;;12.38;62.41;100268.41;4864373;29;20223;-65
2021/12/29 07:25:22;;;;;;;12.20;10.07;;;9.30;85.30;;;12.38;62.28;100273.69;4864159;29;20216;-63
2021/12/29 07:27:49;;;;;;;12.93;10.27;;;9.30;85.20;;;12.40;62.44;100283.03;4864488;29;20192;-64
2021/12/29 07:30:17;;;;;;;11.73;9.47;;;9.30;85.20;;;12.40;62.32;100290.13;4864641;29;20280;-65
2021/12/29 07:32:44;;;;;;;12.53;9.07;;;9.30;85.20;;;12.41;62.31;100305.75;4863876;29;20196;-64
2021/12/29 07:35:12;;;;;;;12.67;10.30;;;9.30;85.10;;;12.41;62.29;100303.13;4864280;29;20196;-64
2021/12/29 07:37:40;;;;;;;10.57;9.23;;;9.30;85.10;;;12.42;62.43;100306.56;4864575;29;20700;-64
2021/12/29 07:40:09;;;;;;;12.87;9.47;;;9.30;85.10;;;12.40;62.11;100313.88;4864062;29;20235;-62
2021/12/29 07:42:39;;;;;;;12.63;9.87;;;9.30;85.00;;;12.38;62.47;100314.09;4862325;29;20206;-64
2021/12/29 07:45:09;;;;;;;12.57;9.30;;;9.30;85.00;;;12.40;62.46;100316.53;4864810;29;20212;-63
2021/12/29 07:47:46;;;;;;;11.40;9.00;;;9.30;85.00;;;12.40;62.29;100316.53;4865470;29;20514;-63
2021/12/29 07:50:16;;;;;;;11.90;8.90;;;9.30;85.10;;;12.42;62.30;100322.41;4865242;29;20530;-64
2021/12/29 07:52:58;;;;;;;16.10;11.37;;;9.30;85.10;;;12.43;62.22;100324.06;4864360;29;20217;-64
2021/12/29 07:55:27;;;;;;;12.33;10.00;;;9.30;85.10;;;12.44;62.39;100325.66;4863765;29;20196;-64
2021/12/29 07:57:54;;;;;;;14.77;10.20;;;9.30;85.20;;;12.44;62.30;100329.13;4863673;29;20268;-63
2021/12/29 08:00:22;;;;;;;14.67;9.70;;;9.30;85.30;;;12.46;62.16;100326.28;4861266;29;20197;-64
2021/12/29 08:02:51;;;;;;;14.77;10.43;;;9.30;85.40;;;12.48;62.30;100326.91;4863272;29;20304;-64
2021/12/29 08:05:19;;;;;;;13.00;9.70;;;9.30;85.40;;;12.49;62.35;100329.34;4862544;29;20220;-63
2021/12/29 08:07:47;;;;;;;11.13;8.37;;;9.30;85.50;;;12.53;62.29;100321.84;4863229;29;20272;-64
2021/12/29 08:10:16;;;;;;;15.00;9.60;;;9.40;85.60;;;12.58;62.16;100322.06;4863765;29;20196;-64
2021/12/29 08:12:44;;;;;;;16.73;11.13;;;9.40;85.60;;;12.61;62.19;100327.78;4863513;29;20688;-64
2021/12/29 08:15:11;;;;;;;14.63;10.30;;;9.40;85.40;;;12.64;62.27;100326.56;4863089;29;20203;-63
2021/12/29 08:17:40;;;;;;;12.97;9.60;;;9.40;85.40;;;12.67;62.01;100326.97;4863590;29;20197;-63
2021/12/29 08:20:09;;;;;;;17.70;10.93;;;9.40;85.30;;;12.70;62.05;100320.47;4862066;29;20201;-64
2021/12/29 08:22:36;;;;;;;13.67;9.27;;;9.50;85.30;;;12.72;62.07;100331.66;4863078;29;20218;-64
2021/12/29 08:25:06;;;;;;;12.83;8.67;;;9.50;85.30;;;12.74;62.14;100327.03;4862840;29;20220;-64
2021/12/29 08:27:35;;;;;;;13.10;8.27;;;9.50;85.30;;;12.77;62.09;100337.16;4861414;29;20234;-64
2021/12/29 08:30:05;;;;;;;11.93;8.07;;;9.60;85.40;;;12.78;61.86;100329.06;4863287;29;20207;-64
2021/12/29 08:32:33;;;;;;;14.37;10.30;;;9.60;85.40;;;12.82;61.85;100330.28;4862455;29;20269;-64
2021/12/29 08:35:00;;;;;;;15.03;9.87;;;9.60;85.40;;;12.83;61.93;100341.66;4863354;29;20199;-64
2021/12/29 08:37:28;;;;;;;18.50;11.17;;;9.60;85.20;;;12.85;61.83;100334.34;4862983;29;20209;-64
2021/12/29 08:39:55;;;;;;;14.23;9.43;;;9.60;85.20;;;12.87;61.82;100338.41;4862740;29;20722;-63
2021/12/29 08:42:23;;;;;;;13.10;8.93;;;9.60;85.30;;;12.89;61.87;100335.56;4862383;29;20208;-64
2021/12/29 08:44:52;;;;;;;14.07;9.80;;;9.60;85.30;;;12.93;62.04;100342.09;4861610;29;20718;-64
2021/12/29 08:47:20;;;;;;;17.73;9.53;;;9.70;85.30;;;12.95;61.89;100347.19;4863053;29;20234;-64
2021/12/29 08:49:47;;;;;;;15.73;10.13;;;9.70;85.90;;;12.95;61.90;100353.28;4862446;29;20608;-63
2021/12/29 08:52:15;;;;;;;17.93;10.53;;;9.70;85.10;;;12.98;61.69;100358.16;4862659;29;20212;-64
2021/12/29 08:54:42;;;;;;;18.67;11.03;;;9.80;85.00;;;12.96;61.69;100360.19;4862253;29;20216;-64
2021/12/29 08:57:09;;;;;;;15.07;10.17;;;9.70;84.90;;;12.95;61.72;100360.38;4862404;29;20204;-64
2021/12/29 08:59:37;;;;;;;16.50;9.87;;;9.80;85.00;;;12.94;61.85;100362.22;4863051;29;20202;-64
2021/12/29 09:02:05;;;;;;;17.83;10.30;;;9.70;85.80;;;12.93;61.82;100373.81;4862580;29;20215;-64
2021/12/29 09:04:33;;;;;;;19.90;11.10;;;9.70;84.90;;;12.91;61.94;100396.94;4862027;29;20224;-64
2021/12/29 09:07:01;;;;;;;15.27;9.47;;;9.80;85.00;;;12.88;62.19;100392.06;4862276;29;20205;-63
2021/12/29 09:09:28;;;;;;;17.07;10.00;;;9.80;85.00;;;12.86;62.15;100394.06;4861735;29;20197;-64
2021/12/29 09:11:55;;;;;;;16.40;9.87;;;9.70;84.80;;;12.84;62.34;100411.94;4862386;29;20260;-63
2021/12/29 09:14:23;;;;;;;15.97;9.53;;;9.80;84.90;;;12.83;62.30;100407.69;4860766;29;20247;-63
2021/12/29 09:16:50;;;;;;;15.67;10.03;;;9.80;84.90;;;12.83;62.20;100405.88;4862291;29;20602;-65
2021/12/29 09:19:19;;;;;;;14.13;8.80;;;9.70;84.90;;;12.85;62.21;100403.03;4862133;29;20205;-65
2021/12/29 09:21:52;;;;;;;16.03;10.00;;;9.70;85.00;;;12.87;62.07;100411.56;4862203;29;20217;-64
2021/12/29 09:24:20;;;;;;;22.30;11.03;;;9.70;85.10;;;12.89;62.18;100423.56;4861342;29;20248;-64
2021/12/29 09:26:47;;;;;;;14.73;8.87;;;9.70;85.10;;;12.92;62.01;100411.78;4862390;29;20203;-64
2021/12/29 09:29:15;;;;;;;13.27;8.80;;;9.80;85.20;;;12.95;62.02;100411.41;4861190;29;20218;-64
2021/12/29 09:31:42;;;;;;;12.37;7.70;;;9.80;85.20;;;12.96;61.95;100410.38;4862379;29;20488;-64
2021/12/29 09:34:13;;;;;;;13.37;8.03;;;9.70;85.10;;;12.99;62.11;100409.97;4861990;29;20227;-64
2021/12/29 09:36:42;;;;;;;9.57;6.50;;;9.80;85.40;;;13.04;61.92;100406.75;4861772;29;20192;-62
2021/12/29 09:39:09;;;;;;;10.27;6.07;;;9.80;85.40;;;13.08;61.97;100411.47;4861753;29;20561;-64
2021/12/29 09:41:37;;;;;;;10.13;6.83;;;9.90;85.50;;;13.13;61.61;100409.03;4862287;29;20742;-64
2021/12/29 09:44:09;;;;;;;9.10;6.30;;;9.90;85.40;;;13.16;61.81;100421.03;4861389;29;20220;-64
2021/12/29 09:46:36;;;;;;;10.83;7.80;;;9.90;85.10;;;13.18;61.77;100435.69;4861947;29;20326;-64
2021/12/29 09:49:04;;;;;;;11.63;6.93;;;9.90;84.90;;;13.20;61.75;100448.69;4862098;29;20220;-64
2021/12/29 09:51:32;;;;;;;13.43;7.60;;;10.00;83.90;;;13.19;61.75;100444.44;4861983;29;20528;-64
2021/12/29 09:54:01;;;;;;;14.23;9.07;;;10.00;83.70;;;13.20;61.47;100454.78;4862732;29;20217;-63
2021/12/29 09:56:28;;;;;;;11.40;7.80;;;10.00;83.70;;;13.21;61.67;100448.50;4862158;29;20201;-63
2021/12/29 09:58:56;;;;;;;11.33;7.83;;;10.00;83.70;;;13.23;61.52;100449.13;4862524;29;20212;-64
2021/12/29 10:01:23;;;;;;;10.47;7.30;;;10.00;83.60;;;13.26;61.66;100446.09;4860664;29;20238;-63
2021/12/29 10:03:51;;;;;;;13.37;7.90;;;10.00;83.50;;;13.31;61.60;100438.34;4860849;29;20224;-64
2021/12/29 10:06:19;;;;;;;10.73;7.33;;;10.10;83.90;;;13.34;61.69;100419.47;4861347;29;20715;-64
2021/12/29 10:08:48;;;;;;;13.17;7.80;;;10.10;83.60;;;13.38;61.55;100431.25;4861974;29;20260;-63
2021/12/29 10:11:28;;;;;;;11.67;8.23;;;10.20;83.80;;;13.43;61.40;100426.19;4859769;29;20200;-64
2021/12/29 10:13:57;;;;;;;12.00;7.53;;;10.20;83.60;;;13.48;61.31;100429.03;4860439;29;20311;-64
2021/12/29 10:16:28;;;;;;;12.27;8.00;;;10.20;83.50;;;13.53;61.47;100433.72;4861832;29;20249;-64
2021/12/29 10:19:00;;;;;;;15.17;8.30;;;10.30;83.60;;;13.64;61.34;100434.97;4860824;29;20618;-65
2021/12/29 10:21:29;;;;;;;11.73;8.17;;;10.30;83.70;;;13.75;61.37;100439.66;4862201;29;20575;-64
2021/12/29 10:23:59;;;;;;;10.40;7.70;;;10.40;84.50;;;13.80;61.05;100450.44;4861514;29;20220;-64
2021/12/29 10:26:46;;;;;;;11.33;7.83;;;10.40;83.30;;;13.80;61.01;100448.63;4861807;29;20224;-63